sensor_id;sensor_type;location;lat;lon;timestamp;temperature;humidity
27667;DHT22;15074;50.940;5.282;2022-09-25T00:00:55;13.40;99.90
27667;DHT22;15074;50.940;5.282;2022-09-25T00:03:23;13.40;99.90
27667;DHT22;15074;50.940;5.282;2022-09-25T00:05:49;13.40;99.90
27667;DHT22;15074;50.940;5.282;2022-09-25T00:08:16;13.50;99.90
27667;DHT22;15074;50.940;5.282;2022-09-25T00:10:48;13.50;99.90
27667;DHT22;15074;50.940;5.282;2022-09-25T00:13:15;13.40;99.90
27667;DHT22;15074;50.940;5.282;2022-09-25T00:15:50;13.40;99.90
27667;DHT22;15074;50.940;5.282;2022-09-25T00:18:16;13.40;99.90
27667;DHT22;15074;50.940;5.282;2022-09-25T00:21:02;13.30;99.90
27667;DHT22;15074;50.940;5.282;2022-09-25T00:23:30;13.30;99.90
27667;DHT22;15074;50.940;5.282;2022-09-25T00:25:55;13.30;99.90
27667;DHT22;15074;50.940;5.282;2022-09-25T00:28:21;13.30;99.90
27667;DHT22;15074;50.940;5.282;2022-09-25T00:30:46;13.30;99.90
27667;DHT22;15074;50.940;5.282;2022-09-25T00:33:12;13.20;99.90
27667;DHT22;15074;50.940;5.282;2022-09-25T00:35:38;13.30;99.90
27667;DHT22;15074;50.940;5.282;2022-09-25T00:38:03;13.30;99.90
27667;DHT22;15074;50.940;5.282;2022-09-25T00:40:29;13.30;99.90
27667;DHT22;15074;50.940;5.282;2022-09-25T00:42:54;13.20;99.90
27667;DHT22;15074;50.940;5.282;2022-09-25T00:45:20;13.20;99.90
27667;DHT22;15074;50.940;5.282;2022-09-25T00:50:50;13.10;99.90
27667;DHT22;15074;50.940;5.282;2022-09-25T00:53:21;13.10;99.90
27667;DHT22;15074;50.940;5.282;2022-09-25T00:55:49;13.00;99.90
27667;DHT22;15074;50.940;5.282;2022-09-25T00:58:18;13.00;99.90
27667;DHT22;15074;50.940;5.282;2022-09-25T01:00:45;13.00;99.90
27667;DHT22;15074;50.940;5.282;2022-09-25T01:03:10;13.10;99.90
27667;DHT22;15074;50.940;5.282;2022-09-25T01:05:39;13.00;99.90
27667;DHT22;15074;50.940;5.282;2022-09-25T01:08:08;13.00;99.90
27667;DHT22;15074;50.940;5.282;2022-09-25T01:10:37;13.00;99.90
27667;DHT22;15074;50.940;5.282;2022-09-25T01:13:03;13.00;99.90
27667;DHT22;15074;50.940;5.282;2022-09-25T01:16:08;13.00;99.90
27667;DHT22;15074;50.940;5.282;2022-09-25T01:21:54;12.90;99.90
27667;DHT22;15074;50.940;5.282;2022-09-25T01:29:52;12.80;99.90
27667;DHT22;15074;50.940;5.282;2022-09-25T01:35:51;12.80;99.90
27667;DHT22;15074;50.940;5.282;2022-09-25T01:39:01;12.80;99.90
27667;DHT22;15074;50.940;5.282;2022-09-25T01:41:22;12.80;99.90
27667;DHT22;15074;50.940;5.282;2022-09-25T01:43:57;12.70;99.90
27667;DHT22;15074;50.940;5.282;2022-09-25T01:46:29;12.70;99.90
27667;DHT22;15074;50.940;5.282;2022-09-25T01:49:04;12.70;99.90
27667;DHT22;15074;50.940;5.282;2022-09-25T01:51:40;12.60;99.90
27667;DHT22;15074;50.940;5.282;2022-09-25T01:54:11;12.60;99.90
27667;DHT22;15074;50.940;5.282;2022-09-25T01:57:21;12.50;99.90
27667;DHT22;15074;50.940;5.282;2022-09-25T02:00:21;12.50;99.90
27667;DHT22;15074;50.940;5.282;2022-09-25T02:05:49;12.50;99.90
27667;DHT22;15074;50.940;5.282;2022-09-25T02:08:39;12.60;99.90
27667;DHT22;15074;50.940;5.282;2022-09-25T02:11:08;12.60;99.90
27667;DHT22;15074;50.940;5.282;2022-09-25T02:13:50;12.60;99.90
27667;DHT22;15074;50.940;5.282;2022-09-25T02:16:21;12.50;99.90
27667;DHT22;15074;50.940;5.282;2022-09-25T02:18:50;12.50;99.90
27667;DHT22;15074;50.940;5.282;2022-09-25T02:22:07;12.50;99.90
27667;DHT22;15074;50.940;5.282;2022-09-25T02:27:07;12.40;99.90
27667;DHT22;15074;50.940;5.282;2022-09-25T02:29:32;12.40;99.90
27667;DHT22;15074;50.940;5.282;2022-09-25T02:32:12;12.40;99.90
27667;DHT22;15074;50.940;5.282;2022-09-25T02:34:38;12.40;99.90
27667;DHT22;15074;50.940;5.282;2022-09-25T02:37:12;12.40;99.90
27667;DHT22;15074;50.940;5.282;2022-09-25T02:39:38;12.40;99.90
27667;DHT22;15074;50.940;5.282;2022-09-25T02:42:35;12.40;99.90
27667;DHT22;15074;50.940;5.282;2022-09-25T02:47:59;12.40;99.90
27667;DHT22;15074;50.940;5.282;2022-09-25T02:55:40;12.40;99.90
27667;DHT22;15074;50.940;5.282;2022-09-25T02:58:10;12.40;99.90
27667;DHT22;15074;50.940;5.282;2022-09-25T03:00:40;12.30;99.90
27667;DHT22;15074;50.940;5.282;2022-09-25T03:03:09;12.30;99.90
27667;DHT22;15074;50.940;5.282;2022-09-25T03:05:36;12.20;99.90
27667;DHT22;15074;50.940;5.282;2022-09-25T03:08:03;12.20;99.90
27667;DHT22;15074;50.940;5.282;2022-09-25T03:10:48;12.20;99.90
27667;DHT22;15074;50.940;5.282;2022-09-25T03:13:22;12.20;99.90
27667;DHT22;15074;50.940;5.282;2022-09-25T03:15:58;12.20;99.90
27667;DHT22;15074;50.940;5.282;2022-09-25T03:18:25;12.20;99.90
27667;DHT22;15074;50.940;5.282;2022-09-25T03:20:52;12.20;99.90
27667;DHT22;15074;50.940;5.282;2022-09-25T03:23:18;12.20;99.90
27667;DHT22;15074;50.940;5.282;2022-09-25T03:25:43;12.20;99.90
27667;DHT22;15074;50.940;5.282;2022-09-25T03:28:10;12.10;99.90
27667;DHT22;15074;50.940;5.282;2022-09-25T03:30:40;12.10;99.90
27667;DHT22;15074;50.940;5.282;2022-09-25T03:33:07;12.10;99.90
27667;DHT22;15074;50.940;5.282;2022-09-25T03:35:35;12.10;99.90
27667;DHT22;15074;50.940;5.282;2022-09-25T03:38:01;12.20;99.90
27667;DHT22;15074;50.940;5.282;2022-09-25T03:40:26;12.30;99.90
27667;DHT22;15074;50.940;5.282;2022-09-25T03:42:52;12.20;99.90
27667;DHT22;15074;50.940;5.282;2022-09-25T03:45:18;12.10;99.90
27667;DHT22;15074;50.940;5.282;2022-09-25T03:47:44;12.10;99.90
27667;DHT22;15074;50.940;5.282;2022-09-25T03:50:09;12.10;99.90
27667;DHT22;15074;50.940;5.282;2022-09-25T03:52:35;12.00;99.90
27667;DHT22;15074;50.940;5.282;2022-09-25T03:55:01;12.10;99.90
27667;DHT22;15074;50.940;5.282;2022-09-25T03:57:26;12.00;99.90
27667;DHT22;15074;50.940;5.282;2022-09-25T03:59:52;12.00;99.90
27667;DHT22;15074;50.940;5.282;2022-09-25T04:02:18;11.90;99.90
27667;DHT22;15074;50.940;5.282;2022-09-25T04:04:44;11.90;99.90
27667;DHT22;15074;50.940;5.282;2022-09-25T04:07:11;12.00;99.90
27667;DHT22;15074;50.940;5.282;2022-09-25T04:09:36;11.90;99.90
27667;DHT22;15074;50.940;5.282;2022-09-25T04:12:02;12.00;99.90
27667;DHT22;15074;50.940;5.282;2022-09-25T04:14:31;12.10;99.90
27667;DHT22;15074;50.940;5.282;2022-09-25T04:16:56;12.10;99.90
27667;DHT22;15074;50.940;5.282;2022-09-25T04:19:22;12.10;99.90
27667;DHT22;15074;50.940;5.282;2022-09-25T04:21:47;12.10;99.90
27667;DHT22;15074;50.940;5.282;2022-09-25T04:24:13;12.10;99.90
27667;DHT22;15074;50.940;5.282;2022-09-25T04:26:57;11.90;99.90
27667;DHT22;15074;50.940;5.282;2022-09-25T04:29:23;11.80;99.90
27667;DHT22;15074;50.940;5.282;2022-09-25T04:31:49;11.80;99.90
27667;DHT22;15074;50.940;5.282;2022-09-25T04:34:34;11.90;99.90
27667;DHT22;15074;50.940;5.282;2022-09-25T04:37:00;11.80;99.90
27667;DHT22;15074;50.940;5.282;2022-09-25T04:39:26;11.80;99.90
27667;DHT22;15074;50.940;5.282;2022-09-25T04:41:51;11.70;99.90
27667;DHT22;15074;50.940;5.282;2022-09-25T04:44:17;11.70;99.90
27667;DHT22;15074;50.940;5.282;2022-09-25T04:46:43;11.70;99.90
27667;DHT22;15074;50.940;5.282;2022-09-25T04:49:08;11.80;99.90
27667;DHT22;15074;50.940;5.282;2022-09-25T04:51:34;11.80;99.90
27667;DHT22;15074;50.940;5.282;2022-09-25T04:53:59;11.80;99.90
27667;DHT22;15074;50.940;5.282;2022-09-25T04:56:25;11.80;99.90
27667;DHT22;15074;50.940;5.282;2022-09-25T04:58:51;11.70;99.90
27667;DHT22;15074;50.940;5.282;2022-09-25T05:01:19;11.80;99.90
27667;DHT22;15074;50.940;5.282;2022-09-25T05:03:49;11.70;99.90
27667;DHT22;15074;50.940;5.282;2022-09-25T05:06:18;11.80;99.90
27667;DHT22;15074;50.940;5.282;2022-09-25T05:08:45;11.70;99.90
27667;DHT22;15074;50.940;5.282;2022-09-25T05:11:11;11.70;99.90
27667;DHT22;15074;50.940;5.282;2022-09-25T05:13:37;11.70;99.90
27667;DHT22;15074;50.940;5.282;2022-09-25T05:16:03;11.60;99.90
27667;DHT22;15074;50.940;5.282;2022-09-25T05:18:29;11.60;99.90
27667;DHT22;15074;50.940;5.282;2022-09-25T05:20:54;11.60;99.90
27667;DHT22;15074;50.940;5.282;2022-09-25T05:23:21;11.60;99.90
27667;DHT22;15074;50.940;5.282;2022-09-25T05:25:55;11.50;99.90
27667;DHT22;15074;50.940;5.282;2022-09-25T05:28:27;11.60;99.90
27667;DHT22;15074;50.940;5.282;2022-09-25T05:30:53;11.50;99.90
27667;DHT22;15074;50.940;5.282;2022-09-25T05:33:19;11.60;99.90
27667;DHT22;15074;50.940;5.282;2022-09-25T05:35:45;11.60;99.90
27667;DHT22;15074;50.940;5.282;2022-09-25T05:38:12;11.60;99.90
27667;DHT22;15074;50.940;5.282;2022-09-25T05:40:38;11.60;99.90
27667;DHT22;15074;50.940;5.282;2022-09-25T05:43:04;11.70;99.90
27667;DHT22;15074;50.940;5.282;2022-09-25T05:45:30;11.80;99.90
27667;DHT22;15074;50.940;5.282;2022-09-25T05:48:04;11.80;99.90
27667;DHT22;15074;50.940;5.282;2022-09-25T05:50:30;11.80;99.90
27667;DHT22;15074;50.940;5.282;2022-09-25T05:53:03;11.80;99.90
27667;DHT22;15074;50.940;5.282;2022-09-25T05:55:30;11.80;99.90
27667;DHT22;15074;50.940;5.282;2022-09-25T05:58:00;11.80;99.90
27667;DHT22;15074;50.940;5.282;2022-09-25T06:00:26;11.90;99.90
27667;DHT22;15074;50.940;5.282;2022-09-25T06:02:52;11.90;99.90
27667;DHT22;15074;50.940;5.282;2022-09-25T06:05:18;12.00;99.90
27667;DHT22;15074;50.940;5.282;2022-09-25T06:07:43;12.00;99.90
27667;DHT22;15074;50.940;5.282;2022-09-25T06:10:09;12.40;99.90
27667;DHT22;15074;50.940;5.282;2022-09-25T06:12:35;13.10;99.90
27667;DHT22;15074;50.940;5.282;2022-09-25T06:15:00;13.80;99.90
27667;DHT22;15074;50.940;5.282;2022-09-25T06:17:26;14.10;99.90
27667;DHT22;15074;50.940;5.282;2022-09-25T06:19:52;14.20;99.90
27667;DHT22;15074;50.940;5.282;2022-09-25T06:22:17;13.90;99.90
27667;DHT22;15074;50.940;5.282;2022-09-25T06:24:43;13.50;99.90
27667;DHT22;15074;50.940;5.282;2022-09-25T06:27:09;13.40;99.90
27667;DHT22;15074;50.940;5.282;2022-09-25T06:29:35;13.30;99.90
27667;DHT22;15074;50.940;5.282;2022-09-25T06:32:02;13.20;99.90
27667;DHT22;15074;50.940;5.282;2022-09-25T06:34:28;13.10;99.90
27667;DHT22;15074;50.940;5.282;2022-09-25T06:36:53;13.00;99.90
27667;DHT22;15074;50.940;5.282;2022-09-25T06:39:19;12.90;99.90
27667;DHT22;15074;50.940;5.282;2022-09-25T06:41:45;12.90;99.90
27667;DHT22;15074;50.940;5.282;2022-09-25T06:44:11;13.00;99.90
27667;DHT22;15074;50.940;5.282;2022-09-25T06:46:36;13.20;99.90
27667;DHT22;15074;50.940;5.282;2022-09-25T06:49:02;14.20;99.90
27667;DHT22;15074;50.940;5.282;2022-09-25T06:51:33;15.30;99.90
27667;DHT22;15074;50.940;5.282;2022-09-25T06:53:59;16.80;99.90
27667;DHT22;15074;50.940;5.282;2022-09-25T06:56:25;17.70;99.90
27667;DHT22;15074;50.940;5.282;2022-09-25T06:58:51;18.00;99.90
27667;DHT22;15074;50.940;5.282;2022-09-25T07:01:17;18.30;99.90
27667;DHT22;15074;50.940;5.282;2022-09-25T07:03:42;18.50;99.90
27667;DHT22;15074;50.940;5.282;2022-09-25T07:06:20;18.40;99.90
27667;DHT22;15074;50.940;5.282;2022-09-25T07:08:47;17.90;99.90
27667;DHT22;15074;50.940;5.282;2022-09-25T07:11:21;17.00;99.90
27667;DHT22;15074;50.940;5.282;2022-09-25T07:13:47;16.70;99.90
27667;DHT22;15074;50.940;5.282;2022-09-25T07:16:20;16.60;99.90
27667;DHT22;15074;50.940;5.282;2022-09-25T07:18:47;16.80;99.90
27667;DHT22;15074;50.940;5.282;2022-09-25T07:21:14;18.20;99.90
27667;DHT22;15074;50.940;5.282;2022-09-25T07:23:41;19.20;99.90
27667;DHT22;15074;50.940;5.282;2022-09-25T07:26:21;19.70;99.90
27667;DHT22;15074;50.940;5.282;2022-09-25T07:28:55;19.80;99.90
27667;DHT22;15074;50.940;5.282;2022-09-25T07:31:27;19.80;99.90
27667;DHT22;15074;50.940;5.282;2022-09-25T07:33:53;19.60;99.90
27667;DHT22;15074;50.940;5.282;2022-09-25T07:36:20;19.30;99.90
27667;DHT22;15074;50.940;5.282;2022-09-25T07:38:52;18.90;99.90
27667;DHT22;15074;50.940;5.282;2022-09-25T07:41:19;18.10;99.90
27667;DHT22;15074;50.940;5.282;2022-09-25T07:43:50;17.70;99.90
27667;DHT22;15074;50.940;5.282;2022-09-25T07:46:17;17.50;99.90
27667;DHT22;15074;50.940;5.282;2022-09-25T07:48:42;17.40;99.90
27667;DHT22;15074;50.940;5.282;2022-09-25T07:51:10;17.90;99.90
27667;DHT22;15074;50.940;5.282;2022-09-25T07:53:37;19.10;99.90
27667;DHT22;15074;50.940;5.282;2022-09-25T07:56:03;20.30;99.90
27667;DHT22;15074;50.940;5.282;2022-09-25T07:58:29;22.00;99.90
27667;DHT22;15074;50.940;5.282;2022-09-25T08:00:59;23.50;99.90
27667;DHT22;15074;50.940;5.282;2022-09-25T08:03:25;24.30;99.90
27667;DHT22;15074;50.940;5.282;2022-09-25T08:06:08;25.60;99.90
27667;DHT22;15074;50.940;5.282;2022-09-25T08:08:36;25.90;99.90
27667;DHT22;15074;50.940;5.282;2022-09-25T08:11:10;26.80;99.90
27667;DHT22;15074;50.940;5.282;2022-09-25T08:13:37;27.30;99.90
27667;DHT22;15074;50.940;5.282;2022-09-25T08:16:05;27.20;99.90
27667;DHT22;15074;50.940;5.282;2022-09-25T08:18:31;28.10;99.30
27667;DHT22;15074;50.940;5.282;2022-09-25T08:21:01;28.60;98.60
27667;DHT22;15074;50.940;5.282;2022-09-25T08:23:27;29.40;96.30
27667;DHT22;15074;50.940;5.282;2022-09-25T08:25:53;30.00;94.10
27667;DHT22;15074;50.940;5.282;2022-09-25T08:28:18;28.00;96.10
27667;DHT22;15074;50.940;5.282;2022-09-25T08:30:44;27.80;96.10
27667;DHT22;15074;50.940;5.282;2022-09-25T08:33:10;26.50;97.50
27667;DHT22;15074;50.940;5.282;2022-09-25T08:35:40;26.70;97.60
27667;DHT22;15074;50.940;5.282;2022-09-25T08:38:06;27.20;97.40
27667;DHT22;15074;50.940;5.282;2022-09-25T08:40:34;28.00;97.00
27667;DHT22;15074;50.940;5.282;2022-09-25T08:43:02;29.20;93.90
27667;DHT22;15074;50.940;5.282;2022-09-25T08:45:34;28.90;93.90
27667;DHT22;15074;50.940;5.282;2022-09-25T08:51:31;29.40;92.90
27667;DHT22;15074;50.940;5.282;2022-09-25T08:53:59;30.30;91.50
27667;DHT22;15074;50.940;5.282;2022-09-25T08:56:27;28.80;92.40
27667;DHT22;15074;50.940;5.282;2022-09-25T08:58:54;28.60;92.50
27667;DHT22;15074;50.940;5.282;2022-09-25T09:01:25;28.70;91.90
27667;DHT22;15074;50.940;5.282;2022-09-25T09:04:10;29.00;92.00
27667;DHT22;15074;50.940;5.282;2022-09-25T09:06:37;28.50;91.80
27667;DHT22;15074;50.940;5.282;2022-09-25T09:09:38;28.60;91.80
27667;DHT22;15074;50.940;5.282;2022-09-25T09:14:41;28.10;92.50
27667;DHT22;15074;50.940;5.282;2022-09-25T09:17:23;28.60;90.80
27667;DHT22;15074;50.940;5.282;2022-09-25T09:19:58;27.40;92.30
27667;DHT22;15074;50.940;5.282;2022-09-25T09:22:40;25.90;95.80
27667;DHT22;15074;50.940;5.282;2022-09-25T09:39:04;27.70;92.30
27667;DHT22;15074;50.940;5.282;2022-09-25T09:45:02;29.10;90.30
27667;DHT22;15074;50.940;5.282;2022-09-25T09:47:54;29.00;88.90
27667;DHT22;15074;50.940;5.282;2022-09-25T09:53:27;28.80;88.50
27667;DHT22;15074;50.940;5.282;2022-09-25T09:55:58;29.20;87.00
27667;DHT22;15074;50.940;5.282;2022-09-25T09:58:51;30.40;84.30
27667;DHT22;15074;50.940;5.282;2022-09-25T10:01:23;28.60;87.70
27667;DHT22;15074;50.940;5.282;2022-09-25T10:04:01;28.60;87.20
27667;DHT22;15074;50.940;5.282;2022-09-25T10:06:31;27.70;90.00
27667;DHT22;15074;50.940;5.282;2022-09-25T10:08:58;26.80;90.30
27667;DHT22;15074;50.940;5.282;2022-09-25T10:11:25;25.80;91.30
27667;DHT22;15074;50.940;5.282;2022-09-25T10:13:51;24.60;95.30
27667;DHT22;15074;50.940;5.282;2022-09-25T10:16:22;25.10;93.20
27667;DHT22;15074;50.940;5.282;2022-09-25T10:19:33;23.40;97.20
27667;DHT22;15074;50.940;5.282;2022-09-25T10:21:59;22.60;99.80
27667;DHT22;15074;50.940;5.282;2022-09-25T10:24:47;22.10;99.90
27667;DHT22;15074;50.940;5.282;2022-09-25T10:27:32;22.60;99.90
27667;DHT22;15074;50.940;5.282;2022-09-25T10:35:21;25.10;94.70
27667;DHT22;15074;50.940;5.282;2022-09-25T10:37:51;26.00;92.50
27667;DHT22;15074;50.940;5.282;2022-09-25T10:40:33;25.00;93.00
27667;DHT22;15074;50.940;5.282;2022-09-25T10:45:31;22.80;96.00
27667;DHT22;15074;50.940;5.282;2022-09-25T10:47:57;22.90;97.30
27667;DHT22;15074;50.940;5.282;2022-09-25T10:50:41;23.80;96.10
27667;DHT22;15074;50.940;5.282;2022-09-25T10:53:23;25.00;93.00
27667;DHT22;15074;50.940;5.282;2022-09-25T10:55:59;25.00;92.00
27667;DHT22;15074;50.940;5.282;2022-09-25T11:01:09;23.80;93.30
27667;DHT22;15074;50.940;5.282;2022-09-25T11:03:57;23.60;93.40
27667;DHT22;15074;50.940;5.282;2022-09-25T11:06:26;22.90;94.60
27667;DHT22;15074;50.940;5.282;2022-09-25T11:11:22;22.80;96.10
27667;DHT22;15074;50.940;5.282;2022-09-25T11:13:53;24.00;94.80
27667;DHT22;15074;50.940;5.282;2022-09-25T11:16:20;25.00;93.30
27667;DHT22;15074;50.940;5.282;2022-09-25T11:18:51;26.30;88.50
27667;DHT22;15074;50.940;5.282;2022-09-25T11:21:39;26.60;88.10
27667;DHT22;15074;50.940;5.282;2022-09-25T11:26:55;26.70;87.50
27667;DHT22;15074;50.940;5.282;2022-09-25T11:32:23;27.20;84.20
27667;DHT22;15074;50.940;5.282;2022-09-25T11:37:45;28.70;82.40
27667;DHT22;15074;50.940;5.282;2022-09-25T11:40:29;29.80;79.20
27667;DHT22;15074;50.940;5.282;2022-09-25T11:43:24;29.90;77.50
27667;DHT22;15074;50.940;5.282;2022-09-25T11:45:59;29.00;76.90
27667;DHT22;15074;50.940;5.282;2022-09-25T11:48:52;27.20;79.10
27667;DHT22;15074;50.940;5.282;2022-09-25T11:57:33;24.20;89.10
27667;DHT22;15074;50.940;5.282;2022-09-25T11:59:48;25.90;85.20
27667;DHT22;15074;50.940;5.282;2022-09-25T12:05:02;27.80;79.70
27667;DHT22;15074;50.940;5.282;2022-09-25T12:10:23;26.20;81.80
27667;DHT22;15074;50.940;5.282;2022-09-25T12:13:17;25.30;84.80
27667;DHT22;15074;50.940;5.282;2022-09-25T12:16:18;24.80;82.50
27667;DHT22;15074;50.940;5.282;2022-09-25T12:22:51;27.10;81.50
27667;DHT22;15074;50.940;5.282;2022-09-25T12:30:18;25.60;79.40
27667;DHT22;15074;50.940;5.282;2022-09-25T12:35:57;23.80;82.00
27667;DHT22;15074;50.940;5.282;2022-09-25T12:41:41;24.50;84.60
27667;DHT22;15074;50.940;5.282;2022-09-25T12:47:02;25.50;81.50
27667;DHT22;15074;50.940;5.282;2022-09-25T12:49:55;26.90;78.40
27667;DHT22;15074;50.940;5.282;2022-09-25T12:52:31;26.50;76.50
27667;DHT22;15074;50.940;5.282;2022-09-25T12:55:22;26.20;78.60
27667;DHT22;15074;50.940;5.282;2022-09-25T13:00:24;24.90;81.20
27667;DHT22;15074;50.940;5.282;2022-09-25T13:03:16;24.50;81.60
27667;DHT22;15074;50.940;5.282;2022-09-25T13:05:48;24.00;82.10
27667;DHT22;15074;50.940;5.282;2022-09-25T13:08:24;23.10;86.50
27667;DHT22;15074;50.940;5.282;2022-09-25T13:11:03;23.00;88.60
27667;DHT22;15074;50.940;5.282;2022-09-25T13:13:41;22.30;90.90
27667;DHT22;15074;50.940;5.282;2022-09-25T13:16:09;21.80;93.00
27667;DHT22;15074;50.940;5.282;2022-09-25T13:18:38;21.70;93.40
27667;DHT22;15074;50.940;5.282;2022-09-25T13:23:51;21.80;94.70
27667;DHT22;15074;50.940;5.282;2022-09-25T13:26:21;21.70;94.80
27667;DHT22;15074;50.940;5.282;2022-09-25T13:28:55;21.80;95.00
27667;DHT22;15074;50.940;5.282;2022-09-25T13:31:29;21.50;95.30
27667;DHT22;15074;50.940;5.282;2022-09-25T13:38:54;21.20;97.20
27667;DHT22;15074;50.940;5.282;2022-09-25T13:55:27;24.10;91.20
27667;DHT22;15074;50.940;5.282;2022-09-25T14:03:03;23.90;91.60
27667;DHT22;15074;50.940;5.282;2022-09-25T14:05:31;23.80;91.80
27667;DHT22;15074;50.940;5.282;2022-09-25T14:08:10;23.60;91.80
27667;DHT22;15074;50.940;5.282;2022-09-25T14:10:42;23.00;91.10
27667;DHT22;15074;50.940;5.282;2022-09-25T14:13:12;22.90;91.30
27667;DHT22;15074;50.940;5.282;2022-09-25T14:15:40;22.80;93.00
27667;DHT22;15074;50.940;5.282;2022-09-25T14:18:13;22.30;93.20
27667;DHT22;15074;50.940;5.282;2022-09-25T14:20:42;21.70;93.40
27667;DHT22;15074;50.940;5.282;2022-09-25T14:23:23;21.30;95.40
27667;DHT22;15074;50.940;5.282;2022-09-25T14:28:30;20.50;98.60
27667;DHT22;15074;50.940;5.282;2022-09-25T14:31:19;20.20;99.30
27667;DHT22;15074;50.940;5.282;2022-09-25T14:39:20;19.80;99.90
27667;DHT22;15074;50.940;5.282;2022-09-25T14:47:35;20.30;99.70
27667;DHT22;15074;50.940;5.282;2022-09-25T14:50:03;20.50;99.40
27667;DHT22;15074;50.940;5.282;2022-09-25T14:52:32;20.60;98.30
27667;DHT22;15074;50.940;5.282;2022-09-25T14:55:00;20.60;99.00
27667;DHT22;15074;50.940;5.282;2022-09-25T14:57:28;20.50;98.10
27667;DHT22;15074;50.940;5.282;2022-09-25T15:00:01;20.50;98.70
27667;DHT22;15074;50.940;5.282;2022-09-25T15:02:29;20.00;99.90
27667;DHT22;15074;50.940;5.282;2022-09-25T15:05:23;19.60;99.90
27667;DHT22;15074;50.940;5.282;2022-09-25T15:07:53;19.70;99.90
27667;DHT22;15074;50.940;5.282;2022-09-25T15:10:33;20.10;99.90
27667;DHT22;15074;50.940;5.282;2022-09-25T15:13:19;20.30;99.90
27667;DHT22;15074;50.940;5.282;2022-09-25T15:15:54;20.20;99.90
27667;DHT22;15074;50.940;5.282;2022-09-25T15:18:45;20.20;99.90
27667;DHT22;15074;50.940;5.282;2022-09-25T15:21:25;20.20;99.90
27667;DHT22;15074;50.940;5.282;2022-09-25T15:23:55;20.00;99.90
27667;DHT22;15074;50.940;5.282;2022-09-25T15:26:22;20.10;99.90
27667;DHT22;15074;50.940;5.282;2022-09-25T15:28:48;20.00;99.90
27667;DHT22;15074;50.940;5.282;2022-09-25T15:31:19;19.90;99.90
27667;DHT22;15074;50.940;5.282;2022-09-25T15:34:00;20.00;99.90
27667;DHT22;15074;50.940;5.282;2022-09-25T15:36:27;20.50;99.90
27667;DHT22;15074;50.940;5.282;2022-09-25T15:38:54;20.60;99.90
27667;DHT22;15074;50.940;5.282;2022-09-25T15:41:21;20.40;99.90
27667;DHT22;15074;50.940;5.282;2022-09-25T15:43:50;20.60;99.90
27667;DHT22;15074;50.940;5.282;2022-09-25T15:48:55;19.90;99.90
27667;DHT22;15074;50.940;5.282;2022-09-25T15:51:28;19.70;99.90
27667;DHT22;15074;50.940;5.282;2022-09-25T15:53:57;19.30;99.90
27667;DHT22;15074;50.940;5.282;2022-09-25T15:56:27;19.20;99.90
27667;DHT22;15074;50.940;5.282;2022-09-25T15:59:04;19.20;99.90
27667;DHT22;15074;50.940;5.282;2022-09-25T16:01:32;19.10;99.90
27667;DHT22;15074;50.940;5.282;2022-09-25T16:04:22;19.10;99.90
27667;DHT22;15074;50.940;5.282;2022-09-25T16:07:25;18.90;99.90
27667;DHT22;15074;50.940;5.282;2022-09-25T16:09:54;19.00;99.90
27667;DHT22;15074;50.940;5.282;2022-09-25T16:12:25;19.10;99.90
27667;DHT22;15074;50.940;5.282;2022-09-25T16:14:55;19.00;99.90
27667;DHT22;15074;50.940;5.282;2022-09-25T16:17:36;19.00;99.90
27667;DHT22;15074;50.940;5.282;2022-09-25T16:22:34;19.00;99.90
27667;DHT22;15074;50.940;5.282;2022-09-25T16:25:02;19.00;99.90
27667;DHT22;15074;50.940;5.282;2022-09-25T16:27:38;19.10;99.90
27667;DHT22;15074;50.940;5.282;2022-09-25T16:30:15;18.90;99.90
27667;DHT22;15074;50.940;5.282;2022-09-25T16:33:04;18.90;99.90
27667;DHT22;15074;50.940;5.282;2022-09-25T16:35:40;18.70;99.90
27667;DHT22;15074;50.940;5.282;2022-09-25T16:38:31;18.60;99.90
27667;DHT22;15074;50.940;5.282;2022-09-25T16:43:31;18.20;99.90
27667;DHT22;15074;50.940;5.282;2022-09-25T16:46:16;18.20;99.90
27667;DHT22;15074;50.940;5.282;2022-09-25T16:48:46;18.10;99.90
27667;DHT22;15074;50.940;5.282;2022-09-25T16:51:22;18.00;99.90
27667;DHT22;15074;50.940;5.282;2022-09-25T16:53:51;18.00;99.90
27667;DHT22;15074;50.940;5.282;2022-09-25T16:56:26;17.80;99.90
27667;DHT22;15074;50.940;5.282;2022-09-25T16:58:54;17.80;99.90
27667;DHT22;15074;50.940;5.282;2022-09-25T17:01:22;17.80;99.90
27667;DHT22;15074;50.940;5.282;2022-09-25T17:03:48;17.60;99.90
27667;DHT22;15074;50.940;5.282;2022-09-25T17:06:34;17.60;99.90
27667;DHT22;15074;50.940;5.282;2022-09-25T17:09:12;17.50;99.90
27667;DHT22;15074;50.940;5.282;2022-09-25T17:11:39;17.30;99.90
27667;DHT22;15074;50.940;5.282;2022-09-25T17:14:14;17.20;99.90
27667;DHT22;15074;50.940;5.282;2022-09-25T17:16:41;17.10;99.90
27667;DHT22;15074;50.940;5.282;2022-09-25T17:19:12;17.10;99.90
27667;DHT22;15074;50.940;5.282;2022-09-25T17:21:41;17.10;99.90
27667;DHT22;15074;50.940;5.282;2022-09-25T17:24:10;17.00;99.90
27667;DHT22;15074;50.940;5.282;2022-09-25T17:26:36;16.90;99.90
27667;DHT22;15074;50.940;5.282;2022-09-25T17:29:06;16.50;99.90
27667;DHT22;15074;50.940;5.282;2022-09-25T17:31:31;16.30;99.90
27667;DHT22;15074;50.940;5.282;2022-09-25T17:34:00;16.20;99.90
27667;DHT22;15074;50.940;5.282;2022-09-25T17:36:26;16.10;99.90
27667;DHT22;15074;50.940;5.282;2022-09-25T17:38:53;16.00;99.90
27667;DHT22;15074;50.940;5.282;2022-09-25T17:41:20;16.00;99.90
27667;DHT22;15074;50.940;5.282;2022-09-25T17:43:47;15.90;99.90
27667;DHT22;15074;50.940;5.282;2022-09-25T17:46:13;15.80;99.90
27667;DHT22;15074;50.940;5.282;2022-09-25T17:48:44;15.80;99.90
27667;DHT22;15074;50.940;5.282;2022-09-25T17:51:23;15.70;99.90
27667;DHT22;15074;50.940;5.282;2022-09-25T17:53:50;15.50;99.90
27667;DHT22;15074;50.940;5.282;2022-09-25T17:56:21;15.50;99.90
27667;DHT22;15074;50.940;5.282;2022-09-25T17:58:47;15.50;99.90
27667;DHT22;15074;50.940;5.282;2022-09-25T18:01:15;15.40;99.90
27667;DHT22;15074;50.940;5.282;2022-09-25T18:03:52;15.30;99.90
27667;DHT22;15074;50.940;5.282;2022-09-25T18:06:18;15.10;99.90
27667;DHT22;15074;50.940;5.282;2022-09-25T18:08:46;14.80;99.90
27667;DHT22;15074;50.940;5.282;2022-09-25T18:11:13;14.70;99.90
27667;DHT22;15074;50.940;5.282;2022-09-25T18:13:39;14.60;99.90
27667;DHT22;15074;50.940;5.282;2022-09-25T18:16:06;14.40;99.90
27667;DHT22;15074;50.940;5.282;2022-09-25T18:18:36;14.30;99.90
27667;DHT22;15074;50.940;5.282;2022-09-25T18:21:20;14.30;99.90
27667;DHT22;15074;50.940;5.282;2022-09-25T18:24:05;14.30;99.90
27667;DHT22;15074;50.940;5.282;2022-09-25T18:26:30;14.10;99.90
27667;DHT22;15074;50.940;5.282;2022-09-25T18:28:56;13.90;99.90
27667;DHT22;15074;50.940;5.282;2022-09-25T18:31:22;13.80;99.90
27667;DHT22;15074;50.940;5.282;2022-09-25T18:33:47;13.80;99.90